Arbúcies





Hora UTC 20:30
Temperatura 9.2 ºC
Humitat 91.1 %
Pressió 1026.0 hPa
Pluja 0.0 mm
Velocitat vent 4.2 km/h
Direcció vent SSW
Radiació solar 0.0 W/m²

Dades diàries 2020-01-29



Hora UTC (hivern +1h; estiu +2h)
Temperatura (ºC) Humitat (%) Pressió (hPa) Velocitat vent (km/h) Precipitació (mm) Radiació solar (W/m²)
Hora UTC Aire Humitat Pressió Vel. Dir. Vel. Max Dir. Intent. màx 5 min. Rad. Sol.
00:05 5.3 91.4 1024.0 11.8 SW 16.6 SSW 0.0 0.0
00:10 5.1 90.5 1024.0 7.6 SW 10.9 SSW 0.0 0.0
00:15 4.5 90.7 1024.0 7.1 SW 10.2 S 0.0 0.0
00:20 4.6 92.2 1024.0 8.7 SW 14.5 WSW 0.0 0.0
00:25 4.8 92.5 1024.0 8.9 SW 13.4 WSW 0.0 0.0
00:30 4.8 92.2 1024.0 9.4 SSW 15.2 SW 0.0 0.0
00:35 5.1 92.7 1024.0 13.1 SW 19.4 SW 0.0 0.0
00:40 5.2 91.6 1024.0 11.4 SW 20.1 SW 0.0 0.0
00:45 5.1 91.2 1024.0 10.6 SW 17.6 WSW 0.0 0.0
00:50 5.0 91.3 1024.0 9.2 SW 17.3 SW 0.0 0.0
00:55 4.5 91.3 1024.0 8.9 SW 14.1 SW 0.0 0.0
01:00 4.3 92.0 1024.0 10.0 SW 12.0 SW 0.0 0.0
01:05 4.2 92.9 1024.0 9.8 SW 12.3 SW 0.0 0.0
01:10 4.3 93.2 1024.0 8.5 SW 13.1 SW 0.0 0.0
01:15 4.3 93.6 1024.0 8.4 SW 12.0 SSW 0.0 0.0
01:20 4.1 93.3 1024.0 7.6 SW 9.5 SW 0.0 0.0
01:25 4.0 93.7 1024.0 7.5 SSW 10.2 SSW 0.0 0.0
01:30 4.5 94.7 1024.0 6.8 SSW 10.6 SSW 0.0 0.0
01:35 4.3 93.6 1024.0 7.4 SSW 13.8 SW 0.0 0.0
01:40 4.6 94.5 1024.0 9.0 SSW 14.1 SSW 0.0 0.0
01:45 4.5 93.8 1024.0 9.3 SSW 13.4 SW 0.0 0.0
01:50 4.7 93.8 1024.0 7.9 SSW 12.3 SSW 0.0 0.0
01:55 4.6 93.6 1024.0 10.6 SSW 15.2 SSW 0.0 0.0
02:00 4.6 93.4 1024.0 9.6 SW 17.6 SSW 0.0 0.0
02:05 4.6 93.5 1024.0 12.0 SW 16.9 SW 0.0 0.0
02:10 4.6 93.3 1024.0 11.2 SW 16.2 WSW 0.0 0.0
02:15 4.4 92.8 1024.0 9.7 SW 12.7 SW 0.0 0.0
02:20 4.1 93.0 1024.0 8.8 SW 15.9 SW 0.0 0.0
02:25 4.3 93.9 1024.0 8.9 SW 13.1 SW 0.0 0.0
02:30 4.2 93.4 1024.0 9.2 SW 11.6 SW 0.0 0.0
02:35 4.1 93.8 1024.0 10.3 SW 15.2 SSW 0.0 0.0
02:40 4.3 93.8 1024.0 10.0 SW 14.5 SW 0.0 0.0
02:45 4.1 93.6 1024.0 9.6 SW 12.7 SW 0.0 0.0
02:50 4.0 93.8 1024.0 9.4 SW 14.1 SW 0.0 0.0
02:55 3.8 93.9 1024.0 8.3 SW 12.3 SW 0.0 0.0
03:00 4.0 94.6 1024.0 9.2 SW 16.9 SW 0.0 0.0
03:05 4.2 94.4 1024.0 9.3 SW 14.1 WSW 0.0 0.0
03:10 4.2 94.1 1024.0 8.7 SW 13.8 SW 0.0 0.0
03:15 4.1 94.0 1024.0 8.4 SW 13.4 SSW 0.0 0.0
03:20 4.2 94.3 1024.0 9.5 SW 14.5 WSW 0.0 0.0
03:25 4.1 94.2 1024.0 9.6 SW 14.5 SSW 0.0 0.0
03:30 4.5 94.7 1024.0 9.5 SW 14.8 SW 0.0 0.0
03:35 4.3 93.9 1024.0 7.1 SW 9.9 WSW 0.0 0.0
03:40 4.2 94.0 1024.0 7.2 SW 8.8 SW 0.0 0.0
03:45 4.0 94.0 1024.0 7.2 SW 10.9 WSW 0.0 0.0
03:50 4.2 94.7 1024.0 8.5 SW 15.5 SW 0.0 0.0
03:55 4.3 94.4 1024.0 7.3 SW 12.0 SW 0.0 0.0
04:00 4.2 94.4 1024.0 9.3 SW 18.7 WSW 0.0 0.0
04:05 4.2 94.4 1024.0 8.1 SW 13.4 SW 0.0 0.0
04:10 4.3 94.6 1024.0 8.1 SW 15.2 WSW 0.0 0.0
04:15 4.3 94.5 1024.0 8.7 SW 14.5 WSW 0.0 0.0
04:20 4.7 94.8 1024.0 8.2 SW 12.7 SW 0.0 0.0
04:25 4.6 94.2 1025.0 7.3 SW 12.0 WSW 0.0 0.0
04:30 4.6 94.3 1024.0 8.5 SW 12.3 SSW 0.0 0.0
04:35 4.9 94.4 1024.0 7.5 SSW 10.9 SSW 0.0 0.0
04:40 4.7 93.8 1024.0 7.4 SSW 9.5 SW 0.0 0.0
04:45 4.8 94.2 1024.0 7.8 SW 11.3 WSW 0.0 0.0
04:50 4.8 94.2 1024.0 8.9 SW 12.0 SW 0.0 0.0
04:55 4.9 94.3 1025.0 10.1 SW 14.5 SW 0.0 0.0
05:00 5.0 94.0 1024.0 9.9 SW 14.1 SW 0.0 0.0
05:05 4.9 93.7 1024.0 8.2 SW 11.3 SW 0.0 0.0
05:10 4.8 94.1 1024.0 8.6 SW 11.6 SW 0.0 0.0
05:15 5.0 94.4 1024.0 9.1 SW 13.4 SSW 0.0 0.0
05:20 5.2 94.1 1024.0 10.2 SW 16.9 SW 0.0 0.0
05:25 5.4 93.4 1025.0 10.1 SW 16.2 WSW 0.0 0.0
05:30 5.3 92.6 1024.0 8.9 SW 16.9 WSW 0.0 0.0
05:35 5.4 93.1 1024.0 10.8 SW 17.6 SW 0.0 0.0
05:40 5.3 92.3 1024.0 8.3 SW 12.0 SW 0.0 0.0
05:45 5.1 92.8 1024.0 9.2 SSW 13.1 SSW 0.0 0.0
05:50 5.0 92.7 1024.0 8.4 SW 10.9 SW 0.0 0.0
05:55 4.9 93.0 1025.0 8.2 SW 10.9 SW 0.0 0.0
06:00 4.9 93.4 1025.0 8.7 SW 11.3 SSW 0.0 0.0
06:05 4.9 93.5 1025.0 7.7 SW 10.2 SW 0.0 0.0
06:10 5.0 93.8 1025.0 8.4 SW 13.8 SSW 0.0 0.0
06:15 5.2 93.7 1025.0 12.2 SW 18.0 SSW 0.0 0.0
06:20 5.2 93.1 1025.0 10.1 SW 17.3 WSW 0.0 0.0
06:25 5.1 92.8 1025.0 7.2 SW 10.9 SW 0.0 0.0
06:30 5.1 93.0 1025.0 7.3 SW 10.2 SSW 0.0 0.0
06:35 5.1 93.3 1025.0 7.4 SSW 9.9 SSW 0.0 0.0
06:40 5.2 93.5 1025.0 8.8 SSW 14.8 SSW 0.0 0.0
06:45 5.4 93.1 1025.0 9.4 SW 14.1 SW 0.0 0.0
06:50 5.4 92.5 1025.0 6.8 SW 11.3 WSW 0.0 0.0
06:55 5.4 92.6 1026.0 7.7 SW 9.9 SW 0.0 0.0
07:00 5.4 92.5 1025.0 7.2 SW 9.9 SW 0.0 0.1
07:05 5.3 92.6 1025.0 9.0 SW 13.4 SSW 0.0 2.2
07:10 5.2 92.8 1025.0 10.3 SW 16.2 SW 0.0 2.9
07:15 5.2 92.9 1025.0 8.4 WSW 15.9 SW 0.0 5.5
07:20 5.1 92.9 1025.0 8.9 SW 14.8 SW 0.0 10.6
07:25 5.0 93.0 1025.0 9.6 SW 12.3 SW 0.0 16.6
07:30 5.1 93.4 1025.0 9.6 SW 14.1 WSW 0.0 22.1
07:35 5.3 93.2 1025.0 8.0 SW 13.1 WSW 0.0 21.7
07:40 5.1 92.7 1025.0 7.3 SW 9.2 SW 0.0 30.5
07:45 5.1 93.2 1025.0 9.0 SW 15.2 SW 0.0 48.5
07:50 5.4 93.4 1025.0 10.2 SW 13.4 SW 0.0 48.0
07:55 5.5 92.5 1026.0 6.5 SW 11.3 SW 0.0 42.5
08:00 5.3 92.4 1025.0 8.4 SW 16.2 WSW 0.0 36.8
08:05 5.4 92.8 1026.0 10.3 SW 16.9 SW 0.0 38.4
08:10 5.5 92.3 1026.0 10.3 SW 15.5 SW 0.0 38.4
08:15 5.7 91.8 1026.0 7.2 SW 14.1 SSW 0.0 47.6
08:20 5.6 91.3 1026.0 6.8 SSW 9.9 SSW 0.0 56.5
08:25 5.6 91.5 1026.0 6.9 SSW 9.2 SSW 0.0 76.6
08:30 5.7 91.5 1025.0 8.0 SSW 11.6 SSW 0.0 105.1
08:35 5.9 91.5 1025.0 8.2 SSW 11.3 SSW 0.0 130.2
08:40 6.4 90.8 1026.0 8.4 SSW 12.0 SW 0.0 132.3
08:45 6.7 89.5 1026.0 8.2 SSW 11.6 SSW 0.0 104.2
08:50 7.0 88.1 1026.0 7.2 SSW 10.2 SSW 0.0 83.3
08:55 7.1 87.4 1026.0 6.3 SSW 9.2 S 0.0 81.2
09:00 7.2 87.1 1026.0 5.6 SSW 8.8 SSW 0.0 98.2
09:05 7.4 86.8 1026.0 5.5 SW 7.4 SSW 0.0 162.2
09:10 7.7 87.1 1026.0 5.1 SW 7.1 SSW 0.0 217.7
09:15 8.0 86.3 1026.0 4.8 SSW 6.4 SSW 0.0 230.0
09:20 8.4 85.2 1026.0 3.6 SSW 5.3 SSW 0.0 266.5
09:25 8.8 84.3 1026.0 2.6 SSW 3.9 SSW 0.0 316.2
09:30 9.0 83.7 1026.0 1.0 S 2.8 SSW 0.0 324.1
09:35 9.5 83.6 1026.0 0.3 NNE 1.8 NNE 0.0 258.7
09:40 9.8 81.3 1026.0 1.0 ENE 2.5 ENE 0.0 173.1
09:45 9.8 80.8 1026.0 0.7 SE 3.5 SE 0.0 184.7
09:50 9.8 81.1 1026.0 1.7 SE 2.8 SE 0.0 219.1
09:55 10.0 81.1 1026.0 1.2 E 2.8 ESE 0.0 223.8
10:00 10.2 80.2 1026.0 1.0 E 2.8 ENE 0.0 212.2
10:05 10.4 79.7 1026.0 1.5 E 3.5 E 0.0 231.5
10:10 10.7 80.1 1026.0 1.0 E 2.8 ESE 0.0 357.6
10:15 11.0 78.9 1026.0 1.8 ESE 5.6 ESE 0.0 332.8
10:20 11.4 78.7 1026.0 1.9 E 7.4 ENE 0.0 333.8
10:25 11.0 76.8 1027.0 4.1 ENE 6.7 ENE 0.0 330.9
10:30 10.9 78.3 1026.0 1.7 E 4.9 E 0.0 223.9
10:35 11.1 78.5 1026.0 3.9 NE 7.4 NE 0.0 267.9
10:40 11.2 77.3 1026.0 5.5 ENE 9.2 ENE 0.0 258.9
10:45 11.2 77.5 1026.0 5.6 ENE 8.1 ENE 0.0 452.1
10:50 11.5 76.0 1026.0 5.2 ENE 7.8 ENE 0.0 457.8
10:55 11.9 75.5 1027.0 4.4 NE 7.4 ENE 0.0 470.0
11:00 12.0 72.6 1026.0 5.9 ENE 9.5 ENE 0.0 468.4
11:05 11.9 75.3 1026.0 5.2 ENE 10.2 ENE 0.0 487.5
11:10 12.2 76.1 1026.0 7.1 NE 10.6 NE 0.0 511.1
11:15 12.6 74.7 1026.0 7.2 NE 12.7 ENE 0.0 448.9
11:20 12.7 73.7 1026.0 8.2 NE 13.4 ENE 0.0 489.4
11:25 13.0 70.6 1026.0 6.3 ENE 13.8 NNE 0.0 513.5
11:30 13.1 68.9 1026.0 6.7 ENE 15.5 E 0.0 514.8
11:35 13.1 70.7 1026.0 4.7 NE 13.8 ENE 0.0 551.9
11:40 13.4 70.1 1026.0 5.6 E 13.4 SE 0.0 551.8
11:45 13.0 69.2 1025.0 5.6 ENE 11.6 ENE 0.0 284.6
11:50 12.5 71.4 1025.0 9.6 ENE 15.9 ENE 0.0 204.9
11:55 12.1 72.5 1026.0 6.4 ENE 15.5 E 0.0 201.1
12:00 12.2 73.1 1025.0 7.7 E 15.9 ENE 0.0 484.0
12:05 12.3 73.4 1025.0 8.1 ENE 14.8 ENE 0.0 502.9
12:10 12.7 73.4 1025.0 9.5 ENE 14.5 ENE 0.0 492.0
12:15 12.8 71.7 1025.0 10.3 ENE 18.3 E 0.0 504.5
12:20 12.6 72.4 1025.0 8.3 ENE 13.8 E 0.0 505.5
12:25 12.9 72.2 1025.0 10.1 NE 14.5 NE 0.0 432.2
12:30 13.2 71.3 1025.0 9.7 NE 14.8 ENE 0.0 467.8
12:35 13.2 69.8 1025.0 6.8 ENE 13.4 ENE 0.0 473.3
12:40 13.4 69.8 1025.0 7.4 ENE 13.4 NE 0.0 472.5
12:45 13.6 68.1 1025.0 6.8 ENE 13.1 ENE 0.0 454.4
12:50 13.5 67.5 1025.0 7.8 ENE 11.6 ENE 0.0 432.8
12:55 13.4 67.5 1025.0 6.3 ENE 12.3 ENE 0.0 401.6
13:00 13.4 67.7 1025.0 5.9 NE 12.3 NE 0.0 340.8
13:05 13.7 67.6 1024.0 4.3 ENE 9.5 ENE 0.0 385.4
13:10 13.7 65.4 1024.0 4.0 E 8.5 SSE 0.0 366.9
13:15 13.6 65.5 1024.0 4.2 ENE 10.2 ESE 0.0 303.1
13:20 13.5 66.0 1024.0 3.2 ENE 7.1 ESE 0.0 381.2
13:25 13.8 66.4 1025.0 5.1 ENE 15.2 ENE 0.0 398.5
13:30 14.0 65.4 1024.0 7.7 NE 15.5 ENE 0.0 397.9
13:35 14.0 65.9 1024.0 9.4 NE 15.5 ENE 0.0 375.8
13:40 14.1 65.8 1024.0 6.4 NE 14.1 NE 0.0 390.0
13:45 14.1 64.5 1024.0 10.1 ENE 14.8 NE 0.0 355.0
13:50 13.8 66.2 1024.0 9.3 ENE 13.8 ENE 0.0 372.0
13:55 13.9 65.6 1024.0 6.8 ENE 11.6 ENE 0.0 357.8
14:00 13.8 65.6 1024.0 4.1 ENE 8.8 NE 0.0 340.5
14:05 13.9 66.1 1024.0 6.3 ENE 12.0 NE 0.0 360.1
14:10 14.0 66.8 1024.0 7.2 ENE 13.8 ENE 0.0 387.8
14:15 13.6 67.6 1024.0 6.9 ENE 14.1 ENE 0.0 353.7
14:20 13.8 68.3 1024.0 8.1 NE 13.4 ENE 0.0 325.6
14:25 13.7 67.9 1024.0 9.6 ENE 15.5 ENE 0.0 327.0
14:30 13.6 68.7 1024.0 8.8 NE 13.1 NE 0.0 257.1
14:35 13.6 68.9 1024.0 7.9 NE 12.3 NE 0.0 293.6
14:40 13.7 68.2 1024.0 7.9 ENE 11.3 ENE 0.0 387.7
14:45 13.9 67.8 1024.0 8.2 ENE 14.5 E 0.0 383.9
14:50 14.0 67.8 1024.0 9.7 ENE 14.5 NE 0.0 369.3
14:55 13.9 68.1 1024.0 9.3 NE 13.4 ENE 0.0 264.8
15:00 13.7 69.0 1024.0 8.5 ENE 13.4 NE 0.0 216.7
15:05 13.5 69.7 1024.0 6.4 NE 12.3 ENE 0.0 222.9
15:10 13.5 70.3 1024.0 5.2 ENE 11.3 NE 0.0 233.5
15:15 13.4 70.4 1024.0 9.7 NE 15.9 ENE 0.0 262.7
15:20 13.3 70.7 1024.0 8.3 ENE 12.7 ENE 0.0 165.5
15:25 13.1 71.7 1024.0 9.1 ENE 15.2 E 0.0 140.0
15:30 12.9 73.1 1024.0 6.3 ENE 12.0 ENE 0.0 140.2
15:35 12.8 73.6 1024.0 6.1 ENE 14.5 ENE 0.0 149.1
15:40 12.8 73.9 1024.0 6.9 ENE 12.0 ENE 0.0 139.7
15:45 12.7 74.0 1025.0 7.4 ENE 12.7 ENE 0.0 134.7
15:50 12.6 75.0 1024.0 8.2 NE 13.1 NE 0.0 121.3
15:55 12.5 75.5 1025.0 4.0 NE 10.6 NE 0.0 110.2
16:00 12.6 75.3 1024.0 4.9 ENE 9.5 ENE 0.0 99.4
16:05 12.5 75.1 1024.0 1.7 E 7.1 E 0.0 92.6
16:10 12.5 75.3 1024.0 2.5 ESE 6.4 E 0.0 92.8
16:15 12.4 75.8 1024.0 1.7 SE 5.3 SSE 0.0 78.9
16:20 12.5 75.9 1025.0 1.4 ENE 4.6 NE 0.0 64.8
16:25 12.4 75.9 1025.0 2.6 E 6.7 SE 0.0 51.8
16:30 12.3 76.3 1025.0 1.5 NE 4.2 ENE 0.0 41.5
16:35 12.3 76.5 1025.0 4.7 ENE 7.1 ENE 0.0 27.3
16:40 12.1 77.4 1025.0 4.0 E 7.1 E 0.0 16.8
16:45 12.0 78.2 1025.0 3.1 ENE 8.1 ENE 0.0 12.0
16:50 11.8 78.9 1025.0 2.0 ESE 5.6 NE 0.0 9.4
16:55 11.7 79.5 1025.0 2.3 ENE 3.9 NE 0.0 7.2
17:00 11.6 80.2 1025.0 4.8 NE 8.1 ENE 0.0 3.8
17:05 11.5 81.0 1025.0 3.4 NE 6.0 NNE 0.0 1.0
17:10 11.4 81.6 1025.0 3.3 NE 7.4 ENE 0.0 0.2
17:15 11.4 82.3 1025.0 1.9 N 5.3 NNE 0.0 0.0
17:20 11.3 82.5 1026.0 0.4 N 2.1 NNW 0.0 0.0
17:25 11.3 82.9 1025.0 2.0 NE 3.9 NNE 0.0 0.0
17:30 11.2 83.2 1025.0 0.2 E 1.4 E 0.0 0.0
17:35 11.1 83.3 1025.0 0.0 NNE 0.4 NNE 0.0 0.0
17:40 10.9 83.8 1025.0 0.8 S 2.5 S 0.0 0.0
17:45 10.7 84.2 1025.0 2.0 SSW 2.8 SW 0.0 0.0
17:50 10.5 84.6 1026.0 2.3 SW 3.2 SW 0.0 0.0
17:55 10.3 84.8 1025.0 0.4 SW 1.8 WSW 0.0 0.0
18:00 10.1 85.1 1026.0 0.0 SW 0.4 SW 0.0 0.0
18:05 9.8 85.5 1025.0 1.0 SSW 2.5 SSW 0.0 0.0
18:10 9.5 86.1 1025.0 2.1 SW 3.5 SW 0.0 0.0
18:15 9.3 87.2 1025.0 2.2 SW 3.2 SW 0.0 0.0
18:20 9.1 87.7 1026.0 0.4 SSW 1.8 SW 0.0 0.0
18:25 9.0 88.3 1025.0 1.1 SW 4.2 SW 0.0 0.1
18:30 8.9 89.0 1026.0 2.8 SW 4.2 SW 0.0 0.5
18:35 8.9 89.7 1026.0 3.0 SW 3.9 SW 0.0 0.0
18:40 8.9 90.1 1026.0 2.4 SSW 3.2 SSW 0.0 0.0
18:45 8.9 90.4 1026.0 1.8 WSW 3.2 SW 0.0 0.0
18:50 8.9 90.6 1026.0 0.1 SW 2.1 SSW 0.0 0.0
18:55 9.0 90.9 1026.0 3.0 SSW 3.9 SW 0.0 0.0
19:00 9.1 91.1 1026.0 1.8 SSW 2.8 S 0.0 0.0
19:05 9.2 91.2 1026.0 1.3 WSW 2.1 WSW 0.0 0.0
19:10 9.2 91.2 1026.0 2.9 SSW 3.9 SSW 0.0 0.0
19:15 9.3 91.4 1026.0 3.3 SSW 3.9 SSW 0.0 0.0
19:20 9.3 91.3 1026.0 3.6 SW 4.9 SW 0.0 0.0
19:25 9.3 91.4 1026.0 4.5 SSW 5.6 SW 0.0 0.0
19:30 9.5 91.6 1026.0 3.5 SSW 4.6 SSW 0.0 0.0
19:35 9.6 91.5 1026.0 3.4 SSW 4.6 SSW 0.0 0.0
19:40 9.6 91.2 1026.0 2.5 SW 4.6 SW 0.0 0.0
19:45 9.6 90.9 1026.0 2.3 SW 3.5 SW 0.0 0.0
19:50 9.5 90.8 1027.0 3.6 SW 4.6 SW 0.0 0.0
19:55 9.5 90.8 1026.0 4.0 SW 4.9 SSW 0.0 0.0
20:00 9.4 90.9 1026.0 2.8 SW 4.2 SW 0.0 0.0
20:05 9.4 90.9 1026.0 3.8 SSW 5.6 SSW 0.0 0.0
20:10 9.5 90.8 1026.0 2.2 SW 4.6 SW 0.0 0.0
20:15 9.4 90.6 1026.0 2.1 WSW 3.5 SSW 0.0 0.0
20:20 9.3 90.6 1027.0 4.9 SW 6.7 SSW 0.0 0.0
20:25 9.2 90.8 1026.0 4.2 SW 6.7 SW 0.0 0.0
20:30 9.2 91.1 1026.0 4.2 SSW 6.7 SW 0.0 0.0
Màxima 14.1 94.8 1027.0 13.1 SW 20.1 SW 0.0 551.9
Mínima 3.8 64.5 1024.0
Total 0.0